sensor_id;sensor_type;location;lat;lon;timestamp;P1;durP1;ratioP1;P2;durP2;ratioP2
64595;SDS011;51003;51.628;6.670;2023-06-19T07:59:57;6.33;;;3.93;;
64595;SDS011;51003;51.628;6.670;2023-06-19T08:02:23;5.43;;;4.70;;
64595;SDS011;51003;51.628;6.670;2023-06-19T08:04:48;5.00;;;4.50;;
64595;SDS011;51003;51.628;6.670;2023-06-19T08:07:13;7.43;;;4.17;;
64595;SDS011;51003;51.628;6.670;2023-06-19T08:09:39;4.20;;;3.80;;
64595;SDS011;51003;51.628;6.670;2023-06-19T08:12:05;5.37;;;4.50;;
64595;SDS011;51003;51.628;6.670;2023-06-19T08:14:31;3.90;;;3.50;;
64595;SDS011;51003;51.628;6.670;2023-06-19T08:16:56;4.10;;;3.80;;
64595;SDS011;51003;51.628;6.670;2023-06-19T08:19:21;4.50;;;4.10;;
64595;SDS011;51003;51.628;6.670;2023-06-19T08:21:47;4.37;;;3.97;;
64595;SDS011;51003;51.628;6.670;2023-06-19T08:24:12;4.30;;;3.90;;
64595;SDS011;51003;51.628;6.670;2023-06-19T08:26:37;4.63;;;4.10;;
64595;SDS011;51003;51.628;6.670;2023-06-19T08:29:03;4.23;;;3.83;;
64595;SDS011;51003;51.628;6.670;2023-06-19T08:31:28;4.40;;;3.50;;
64595;SDS011;51003;51.628;6.670;2023-06-19T08:33:54;4.13;;;3.57;;
64595;SDS011;51003;51.628;6.670;2023-06-19T08:36:19;4.23;;;3.60;;
64595;SDS011;51003;51.628;6.670;2023-06-19T08:38:45;3.70;;;3.40;;
64595;SDS011;51003;51.628;6.670;2023-06-19T08:41:14;3.50;;;3.23;;
64595;SDS011;51003;51.628;6.670;2023-06-19T08:43:39;3.20;;;2.90;;
64595;SDS011;51003;51.628;6.670;2023-06-19T08:48:35;4.10;;;3.27;;
64595;SDS011;51003;51.628;6.670;2023-06-19T08:51:01;3.20;;;2.90;;
64595;SDS011;51003;51.628;6.670;2023-06-19T08:53:26;2.63;;;2.43;;
64595;SDS011;51003;51.628;6.670;2023-06-19T08:55:51;2.97;;;2.87;;
64595;SDS011;51003;51.628;6.670;2023-06-19T08:58:21;2.80;;;2.60;;
64595;SDS011;51003;51.628;6.670;2023-06-19T09:00:48;3.20;;;3.00;;
64595;SDS011;51003;51.628;6.670;2023-06-19T09:03:19;3.60;;;3.30;;
64595;SDS011;51003;51.628;6.670;2023-06-19T09:05:45;3.40;;;3.20;;
64595;SDS011;51003;51.628;6.670;2023-06-19T09:08:14;4.00;;;3.30;;
64595;SDS011;51003;51.628;6.670;2023-06-19T09:10:53;6.20;;;3.60;;
64595;SDS011;51003;51.628;6.670;2023-06-19T09:13:21;5.70;;;3.47;;
64595;SDS011;51003;51.628;6.670;2023-06-19T09:15:47;3.50;;;3.27;;
64595;SDS011;51003;51.628;6.670;2023-06-19T09:18:12;3.80;;;3.50;;
64595;SDS011;51003;51.628;6.670;2023-06-19T09:20:39;4.07;;;3.77;;
64595;SDS011;51003;51.628;6.670;2023-06-19T09:23:14;3.87;;;3.57;;
64595;SDS011;51003;51.628;6.670;2023-06-19T09:25:54;8.10;;;3.67;;
64595;SDS011;51003;51.628;6.670;2023-06-19T09:28:23;4.20;;;3.60;;
64595;SDS011;51003;51.628;6.670;2023-06-19T09:30:53;4.10;;;3.80;;
64595;SDS011;51003;51.628;6.670;2023-06-19T09:33:26;3.50;;;3.30;;
64595;SDS011;51003;51.628;6.670;2023-06-19T09:35:53;4.43;;;4.03;;
64595;SDS011;51003;51.628;6.670;2023-06-19T09:38:21;3.77;;;3.47;;
64595;SDS011;51003;51.628;6.670;2023-06-19T09:40:47;3.90;;;3.60;;
64595;SDS011;51003;51.628;6.670;2023-06-19T09:43:13;4.27;;;3.87;;
64595;SDS011;51003;51.628;6.670;2023-06-19T09:45:43;5.30;;;3.53;;
64595;SDS011;51003;51.628;6.670;2023-06-19T09:48:09;4.10;;;3.83;;
64595;SDS011;51003;51.628;6.670;2023-06-19T09:50:35;4.10;;;3.80;;
64595;SDS011;51003;51.628;6.670;2023-06-19T09:53:02;4.50;;;3.87;;
64595;SDS011;51003;51.628;6.670;2023-06-19T09:55:29;3.93;;;3.70;;
64595;SDS011;51003;51.628;6.670;2023-06-19T09:57:55;4.60;;;4.20;;
64595;SDS011;51003;51.628;6.670;2023-06-19T10:00:21;4.30;;;3.90;;
64595;SDS011;51003;51.628;6.670;2023-06-19T10:02:51;4.87;;;4.47;;
64595;SDS011;51003;51.628;6.670;2023-06-19T10:05:17;5.27;;;4.40;;
64595;SDS011;51003;51.628;6.670;2023-06-19T10:07:53;5.27;;;4.87;;
64595;SDS011;51003;51.628;6.670;2023-06-19T10:12:53;7.30;;;4.60;;
64595;SDS011;51003;51.628;6.670;2023-06-19T10:15:27;4.97;;;4.57;;
64595;SDS011;51003;51.628;6.670;2023-06-19T10:18:05;4.40;;;4.10;;
64595;SDS011;51003;51.628;6.670;2023-06-19T10:20:35;6.80;;;4.70;;
64595;SDS011;51003;51.628;6.670;2023-06-19T10:25:38;5.77;;;5.30;;
64595;SDS011;51003;51.628;6.670;2023-06-19T10:28:15;5.93;;;5.07;;
64595;SDS011;51003;51.628;6.670;2023-06-19T10:30:42;5.50;;;4.97;;
64595;SDS011;51003;51.628;6.670;2023-06-19T10:33:07;6.90;;;5.10;;
64595;SDS011;51003;51.628;6.670;2023-06-19T10:35:39;5.23;;;4.87;;
64595;SDS011;51003;51.628;6.670;2023-06-19T10:38:06;4.50;;;4.17;;
64595;SDS011;51003;51.628;6.670;2023-06-19T10:40:33;6.00;;;5.50;;
64595;SDS011;51003;51.628;6.670;2023-06-19T10:43:00;6.30;;;5.70;;
64595;SDS011;51003;51.628;6.670;2023-06-19T10:45:26;6.37;;;5.57;;
64595;SDS011;51003;51.628;6.670;2023-06-19T10:47:53;6.10;;;5.50;;
64595;SDS011;51003;51.628;6.670;2023-06-19T10:50:19;5.90;;;5.37;;
64595;SDS011;51003;51.628;6.670;2023-06-19T10:52:45;6.50;;;5.90;;
64595;SDS011;51003;51.628;6.670;2023-06-19T10:55:11;5.87;;;5.37;;
64595;SDS011;51003;51.628;6.670;2023-06-19T10:57:37;5.97;;;5.47;;
64595;SDS011;51003;51.628;6.670;2023-06-19T11:00:04;6.00;;;5.50;;
64595;SDS011;51003;51.628;6.670;2023-06-19T11:02:36;5.60;;;5.20;;
64595;SDS011;51003;51.628;6.670;2023-06-19T11:05:04;5.47;;;5.07;;
64595;SDS011;51003;51.628;6.670;2023-06-19T11:07:31;6.60;;;5.77;;
64595;SDS011;51003;51.628;6.670;2023-06-19T11:09:56;6.07;;;5.57;;
64595;SDS011;51003;51.628;6.670;2023-06-19T11:12:22;9.37;;;7.20;;
64595;SDS011;51003;51.628;6.670;2023-06-19T11:14:48;10.23;;;7.70;;
64595;SDS011;51003;51.628;6.670;2023-06-19T11:17:14;7.33;;;6.10;;
64595;SDS011;51003;51.628;6.670;2023-06-19T11:19:39;6.07;;;5.47;;
64595;SDS011;51003;51.628;6.670;2023-06-19T11:22:07;12.57;;;6.20;;
64595;SDS011;51003;51.628;6.670;2023-06-19T11:24:33;6.17;;;5.57;;
64595;SDS011;51003;51.628;6.670;2023-06-19T11:26:58;5.57;;;5.07;;
64595;SDS011;51003;51.628;6.670;2023-06-19T11:29:30;5.40;;;5.00;;
64595;SDS011;51003;51.628;6.670;2023-06-19T11:34:37;10.67;;;5.27;;
64595;SDS011;51003;51.628;6.670;2023-06-19T11:37:11;8.53;;;5.53;;
64595;SDS011;51003;51.628;6.670;2023-06-19T11:39:37;5.70;;;5.20;;
64595;SDS011;51003;51.628;6.670;2023-06-19T11:42:03;5.50;;;5.00;;
64595;SDS011;51003;51.628;6.670;2023-06-19T11:44:29;5.63;;;5.10;;
64595;SDS011;51003;51.628;6.670;2023-06-19T11:46:57;5.70;;;5.30;;
64595;SDS011;51003;51.628;6.670;2023-06-19T11:49:23;5.50;;;5.20;;
64595;SDS011;51003;51.628;6.670;2023-06-19T11:51:50;5.73;;;5.33;;
64595;SDS011;51003;51.628;6.670;2023-06-19T11:54:15;6.50;;;6.00;;
64595;SDS011;51003;51.628;6.670;2023-06-19T11:56:41;6.47;;;5.83;;
64595;SDS011;51003;51.628;6.670;2023-06-19T11:59:07;5.90;;;5.27;;
64595;SDS011;51003;51.628;6.670;2023-06-19T12:01:33;5.40;;;4.90;;
64595;SDS011;51003;51.628;6.670;2023-06-19T12:03:59;5.60;;;5.10;;
64595;SDS011;51003;51.628;6.670;2023-06-19T12:06:25;5.23;;;4.83;;
64595;SDS011;51003;51.628;6.670;2023-06-19T12:08:51;6.20;;;5.70;;
64595;SDS011;51003;51.628;6.670;2023-06-19T12:11:16;6.37;;;5.67;;
64595;SDS011;51003;51.628;6.670;2023-06-19T12:13:41;13.13;;;6.33;;
64595;SDS011;51003;51.628;6.670;2023-06-19T12:16:07;5.87;;;5.27;;
64595;SDS011;51003;51.628;6.670;2023-06-19T12:18:33;6.37;;;5.67;;
64595;SDS011;51003;51.628;6.670;2023-06-19T12:20:59;5.70;;;4.90;;
64595;SDS011;51003;51.628;6.670;2023-06-19T12:23:25;5.67;;;5.17;;
64595;SDS011;51003;51.628;6.670;2023-06-19T12:25:50;6.10;;;5.60;;
64595;SDS011;51003;51.628;6.670;2023-06-19T12:28:15;5.83;;;5.23;;
64595;SDS011;51003;51.628;6.670;2023-06-19T12:30:44;7.43;;;5.07;;
64595;SDS011;51003;51.628;6.670;2023-06-19T12:33:10;6.03;;;5.53;;
64595;SDS011;51003;51.628;6.670;2023-06-19T12:35:37;5.47;;;5.13;;
64595;SDS011;51003;51.628;6.670;2023-06-19T12:38:04;5.67;;;5.17;;
64595;SDS011;51003;51.628;6.670;2023-06-19T12:40:31;10.20;;;5.87;;
64595;SDS011;51003;51.628;6.670;2023-06-19T12:42:57;6.03;;;5.50;;
64595;SDS011;51003;51.628;6.670;2023-06-19T12:45:22;5.70;;;5.20;;
64595;SDS011;51003;51.628;6.670;2023-06-19T12:47:48;5.90;;;5.40;;
64595;SDS011;51003;51.628;6.670;2023-06-19T12:50:13;5.47;;;5.07;;
64595;SDS011;51003;51.628;6.670;2023-06-19T12:52:39;5.40;;;5.00;;
64595;SDS011;51003;51.628;6.670;2023-06-19T12:55:04;5.10;;;4.67;;
64595;SDS011;51003;51.628;6.670;2023-06-19T12:57:30;5.60;;;5.10;;
64595;SDS011;51003;51.628;6.670;2023-06-19T12:59:55;4.93;;;4.53;;
64595;SDS011;51003;51.628;6.670;2023-06-19T13:02:20;5.53;;;5.07;;
64595;SDS011;51003;51.628;6.670;2023-06-19T13:04:46;5.03;;;4.60;;
64595;SDS011;51003;51.628;6.670;2023-06-19T13:07:11;5.30;;;5.00;;
64595;SDS011;51003;51.628;6.670;2023-06-19T13:09:37;6.13;;;4.80;;
64595;SDS011;51003;51.628;6.670;2023-06-19T13:12:03;5.90;;;5.20;;
64595;SDS011;51003;51.628;6.670;2023-06-19T13:14:28;5.07;;;4.57;;
64595;SDS011;51003;51.628;6.670;2023-06-19T13:16:54;5.05;;;4.65;;
64595;SDS011;51003;51.628;6.670;2023-06-19T13:19:19;5.57;;;5.18;;
64595;SDS011;51003;51.628;6.670;2023-06-19T13:21:44;5.80;;;5.20;;
64595;SDS011;51003;51.628;6.670;2023-06-19T13:24:10;5.57;;;5.18;;
64595;SDS011;51003;51.628;6.670;2023-06-19T13:26:35;5.15;;;4.75;;
64595;SDS011;51003;51.628;6.670;2023-06-19T13:29:01;5.28;;;4.88;;
64595;SDS011;51003;51.628;6.670;2023-06-19T13:31:26;4.65;;;4.25;;
64595;SDS011;51003;51.628;6.670;2023-06-19T13:33:51;4.72;;;4.32;;
64595;SDS011;51003;51.628;6.670;2023-06-19T13:36:17;6.47;;;4.88;;
64595;SDS011;51003;51.628;6.670;2023-06-19T13:38:44;5.10;;;4.80;;
64595;SDS011;51003;51.628;6.670;2023-06-19T13:41:10;5.30;;;4.90;;
64595;SDS011;51003;51.628;6.670;2023-06-19T13:43:36;5.22;;;4.80;;
64595;SDS011;51003;51.628;6.670;2023-06-19T13:46:05;5.20;;;4.72;;
64595;SDS011;51003;51.628;6.670;2023-06-19T13:48:30;5.28;;;4.88;;
64595;SDS011;51003;51.628;6.670;2023-06-19T13:50:56;5.13;;;4.63;;
64595;SDS011;51003;51.628;6.670;2023-06-19T13:53:24;5.50;;;5.13;;
64595;SDS011;51003;51.628;6.670;2023-06-19T13:55:49;4.78;;;4.55;;
64595;SDS011;51003;51.628;6.670;2023-06-19T13:58:15;5.00;;;4.60;;
64595;SDS011;51003;51.628;6.670;2023-06-19T14:00:40;4.90;;;4.60;;
64595;SDS011;51003;51.628;6.670;2023-06-19T14:03:06;4.88;;;4.40;;
64595;SDS011;51003;51.628;6.670;2023-06-19T14:05:32;4.75;;;4.55;;
64595;SDS011;51003;51.628;6.670;2023-06-19T14:07:58;5.00;;;4.60;;
64595;SDS011;51003;51.628;6.670;2023-06-19T14:10:24;5.13;;;4.80;;
64595;SDS011;51003;51.628;6.670;2023-06-19T14:12:49;4.93;;;4.60;;
64595;SDS011;51003;51.628;6.670;2023-06-19T14:15:15;5.20;;;4.80;;
64595;SDS011;51003;51.628;6.670;2023-06-19T14:17:41;4.90;;;4.60;;
64595;SDS011;51003;51.628;6.670;2023-06-19T14:20:07;6.50;;;5.18;;
64595;SDS011;51003;51.628;6.670;2023-06-19T14:22:35;4.90;;;4.55;;
64595;SDS011;51003;51.628;6.670;2023-06-19T14:25:00;4.80;;;4.50;;
64595;SDS011;51003;51.628;6.670;2023-06-19T14:27:27;5.53;;;5.10;;
64595;SDS011;51003;51.628;6.670;2023-06-19T14:29:54;5.03;;;4.63;;
64595;SDS011;51003;51.628;6.670;2023-06-19T14:32:19;5.20;;;4.73;;
64595;SDS011;51003;51.628;6.670;2023-06-19T14:34:45;5.33;;;4.93;;
64595;SDS011;51003;51.628;6.670;2023-06-19T14:37:10;8.47;;;6.37;;
64595;SDS011;51003;51.628;6.670;2023-06-19T14:39:36;13.93;;;7.13;;
64595;SDS011;51003;51.628;6.670;2023-06-19T14:42:01;6.30;;;5.80;;
64595;SDS011;51003;51.628;6.670;2023-06-19T14:44:26;9.83;;;5.80;;
64595;SDS011;51003;51.628;6.670;2023-06-19T14:46:52;5.17;;;4.87;;
64595;SDS011;51003;51.628;6.670;2023-06-19T14:49:17;5.63;;;5.13;;
64595;SDS011;51003;51.628;6.670;2023-06-19T14:51:43;5.13;;;4.73;;
64595;SDS011;51003;51.628;6.670;2023-06-19T14:54:09;5.07;;;4.77;;
64595;SDS011;51003;51.628;6.670;2023-06-19T14:56:34;6.13;;;4.43;;
64595;SDS011;51003;51.628;6.670;2023-06-19T14:59:00;5.33;;;4.90;;
64595;SDS011;51003;51.628;6.670;2023-06-19T15:01:25;4.73;;;4.43;;
64595;SDS011;51003;51.628;6.670;2023-06-19T15:03:51;5.57;;;5.07;;
64595;SDS011;51003;51.628;6.670;2023-06-19T15:06:17;5.13;;;4.80;;
64595;SDS011;51003;51.628;6.670;2023-06-19T15:08:43;4.90;;;4.50;;
64595;SDS011;51003;51.628;6.670;2023-06-19T15:11:08;4.77;;;4.47;;
64595;SDS011;51003;51.628;6.670;2023-06-19T15:13:34;4.97;;;4.57;;
64595;SDS011;51003;51.628;6.670;2023-06-19T15:15:59;4.80;;;4.40;;
64595;SDS011;51003;51.628;6.670;2023-06-19T15:18:25;4.97;;;4.50;;
64595;SDS011;51003;51.628;6.670;2023-06-19T15:20:51;5.23;;;4.53;;
64595;SDS011;51003;51.628;6.670;2023-06-19T15:23:16;5.43;;;5.00;;
64595;SDS011;51003;51.628;6.670;2023-06-19T15:25:42;4.73;;;4.43;;
64595;SDS011;51003;51.628;6.670;2023-06-19T15:28:07;4.80;;;4.50;;
64595;SDS011;51003;51.628;6.670;2023-06-19T15:30:33;7.33;;;4.47;;
64595;SDS011;51003;51.628;6.670;2023-06-19T15:32:58;4.53;;;4.30;;
64595;SDS011;51003;51.628;6.670;2023-06-19T15:35:24;5.10;;;4.80;;
64595;SDS011;51003;51.628;6.670;2023-06-19T15:37:50;5.10;;;4.70;;
64595;SDS011;51003;51.628;6.670;2023-06-19T15:40:15;4.60;;;4.27;;
64595;SDS011;51003;51.628;6.670;2023-06-19T15:42:41;5.37;;;4.97;;
64595;SDS011;51003;51.628;6.670;2023-06-19T15:45:06;4.93;;;4.63;;
64595;SDS011;51003;51.628;6.670;2023-06-19T15:47:32;5.30;;;4.90;;
64595;SDS011;51003;51.628;6.670;2023-06-19T15:49:59;5.20;;;4.80;;
64595;SDS011;51003;51.628;6.670;2023-06-19T15:52:25;5.27;;;4.90;;
64595;SDS011;51003;51.628;6.670;2023-06-19T15:54:51;5.00;;;4.60;;
64595;SDS011;51003;51.628;6.670;2023-06-19T15:57:17;4.60;;;4.23;;
64595;SDS011;51003;51.628;6.670;2023-06-19T15:59:42;5.37;;;4.97;;
64595;SDS011;51003;51.628;6.670;2023-06-19T16:02:11;5.03;;;4.73;;
64595;SDS011;51003;51.628;6.670;2023-06-19T16:04:37;5.17;;;4.77;;
64595;SDS011;51003;51.628;6.670;2023-06-19T16:07:04;5.23;;;4.93;;
64595;SDS011;51003;51.628;6.670;2023-06-19T16:09:29;4.70;;;4.40;;
64595;SDS011;51003;51.628;6.670;2023-06-19T16:11:55;5.00;;;4.60;;
64595;SDS011;51003;51.628;6.670;2023-06-19T16:14:20;4.40;;;4.20;;
64595;SDS011;51003;51.628;6.670;2023-06-19T16:16:47;4.50;;;4.27;;
64595;SDS011;51003;51.628;6.670;2023-06-19T16:19:12;5.30;;;5.00;;
64595;SDS011;51003;51.628;6.670;2023-06-19T16:21:38;5.23;;;4.80;;
64595;SDS011;51003;51.628;6.670;2023-06-19T16:24:04;5.30;;;4.90;;
64595;SDS011;51003;51.628;6.670;2023-06-19T16:26:34;5.83;;;5.40;;
64595;SDS011;51003;51.628;6.670;2023-06-19T16:28:59;5.27;;;4.87;;
64595;SDS011;51003;51.628;6.670;2023-06-19T16:31:25;8.43;;;4.73;;
64595;SDS011;51003;51.628;6.670;2023-06-19T16:33:50;6.03;;;5.30;;
64595;SDS011;51003;51.628;6.670;2023-06-19T16:36:16;5.33;;;5.03;;
64595;SDS011;51003;51.628;6.670;2023-06-19T16:38:42;6.43;;;4.97;;
64595;SDS011;51003;51.628;6.670;2023-06-19T16:41:07;6.73;;;5.67;;
64595;SDS011;51003;51.628;6.670;2023-06-19T16:43:33;5.83;;;5.33;;
64595;SDS011;51003;51.628;6.670;2023-06-19T16:45:58;5.50;;;5.10;;
64595;SDS011;51003;51.628;6.670;2023-06-19T16:48:23;5.63;;;5.10;;
64595;SDS011;51003;51.628;6.670;2023-06-19T16:50:49;5.43;;;4.93;;
64595;SDS011;51003;51.628;6.670;2023-06-19T16:53:14;5.50;;;5.00;;
64595;SDS011;51003;51.628;6.670;2023-06-19T16:55:39;5.27;;;4.87;;
64595;SDS011;51003;51.628;6.670;2023-06-19T16:58:05;6.87;;;5.10;;
64595;SDS011;51003;51.628;6.670;2023-06-19T17:00:30;5.73;;;5.23;;
64595;SDS011;51003;51.628;6.670;2023-06-19T17:02:56;5.33;;;4.83;;
64595;SDS011;51003;51.628;6.670;2023-06-19T17:05:22;6.10;;;5.50;;
64595;SDS011;51003;51.628;6.670;2023-06-19T17:07:48;9.33;;;5.20;;
64595;SDS011;51003;51.628;6.670;2023-06-19T17:10:14;6.73;;;5.80;;
64595;SDS011;51003;51.628;6.670;2023-06-19T17:12:42;7.20;;;5.67;;
64595;SDS011;51003;51.628;6.670;2023-06-19T17:15:08;6.80;;;5.33;;
64595;SDS011;51003;51.628;6.670;2023-06-19T17:17:34;5.97;;;5.47;;
64595;SDS011;51003;51.628;6.670;2023-06-19T17:19:59;5.90;;;5.17;;
64595;SDS011;51003;51.628;6.670;2023-06-19T17:22:24;9.63;;;4.97;;
64595;SDS011;51003;51.628;6.670;2023-06-19T17:24:50;6.50;;;5.50;;
64595;SDS011;51003;51.628;6.670;2023-06-19T17:27:15;6.30;;;5.70;;
64595;SDS011;51003;51.628;6.670;2023-06-19T17:29:41;6.60;;;5.00;;
64595;SDS011;51003;51.628;6.670;2023-06-19T17:32:06;8.90;;;5.53;;
64595;SDS011;51003;51.628;6.670;2023-06-19T17:34:33;6.70;;;5.77;;
64595;SDS011;51003;51.628;6.670;2023-06-19T17:36:59;5.80;;;5.30;;
64595;SDS011;51003;51.628;6.670;2023-06-19T17:39:24;6.40;;;5.80;;
64595;SDS011;51003;51.628;6.670;2023-06-19T17:41:50;6.30;;;5.70;;
64595;SDS011;51003;51.628;6.670;2023-06-19T17:44:15;10.50;;;6.33;;
64595;SDS011;51003;51.628;6.670;2023-06-19T17:46:41;6.47;;;5.87;;
64595;SDS011;51003;51.628;6.670;2023-06-19T17:49:08;7.80;;;5.70;;
64595;SDS011;51003;51.628;6.670;2023-06-19T17:51:34;9.27;;;5.40;;
64595;SDS011;51003;51.628;6.670;2023-06-19T17:54:00;6.47;;;5.77;;
64595;SDS011;51003;51.628;6.670;2023-06-19T17:56:27;5.70;;;5.10;;
64595;SDS011;51003;51.628;6.670;2023-06-19T17:58:53;6.57;;;5.90;;
64595;SDS011;51003;51.628;6.670;2023-06-19T18:01:19;9.93;;;5.57;;
64595;SDS011;51003;51.628;6.670;2023-06-19T18:03:44;7.20;;;5.03;;
64595;SDS011;51003;51.628;6.670;2023-06-19T18:06:09;6.03;;;5.40;;
64595;SDS011;51003;51.628;6.670;2023-06-19T18:08:35;7.83;;;5.70;;
64595;SDS011;51003;51.628;6.670;2023-06-19T18:11:00;6.33;;;5.40;;
64595;SDS011;51003;51.628;6.670;2023-06-19T18:13:27;7.07;;;6.20;;
64595;SDS011;51003;51.628;6.670;2023-06-19T18:15:52;7.43;;;5.93;;
64595;SDS011;51003;51.628;6.670;2023-06-19T18:18:18;7.70;;;6.20;;
64595;SDS011;51003;51.628;6.670;2023-06-19T18:20:43;8.40;;;6.53;;
64595;SDS011;51003;51.628;6.670;2023-06-19T18:23:08;6.30;;;5.70;;
64595;SDS011;51003;51.628;6.670;2023-06-19T18:25:34;7.20;;;6.10;;
64595;SDS011;51003;51.628;6.670;2023-06-19T18:28:00;6.60;;;5.60;;
64595;SDS011;51003;51.628;6.670;2023-06-19T18:30:26;6.40;;;5.80;;
64595;SDS011;51003;51.628;6.670;2023-06-19T18:32:51;6.53;;;5.70;;
64595;SDS011;51003;51.628;6.670;2023-06-19T18:35:17;6.70;;;6.00;;
64595;SDS011;51003;51.628;6.670;2023-06-19T18:37:43;6.13;;;5.33;;
64595;SDS011;51003;51.628;6.670;2023-06-19T18:40:08;6.70;;;6.00;;
64595;SDS011;51003;51.628;6.670;2023-06-19T18:42:35;13.00;;;6.47;;
64595;SDS011;51003;51.628;6.670;2023-06-19T18:45:01;7.10;;;5.90;;
64595;SDS011;51003;51.628;6.670;2023-06-19T18:47:26;6.67;;;6.00;;
64595;SDS011;51003;51.628;6.670;2023-06-19T18:49:51;6.10;;;5.50;;
64595;SDS011;51003;51.628;6.670;2023-06-19T18:52:17;6.77;;;6.10;;
64595;SDS011;51003;51.628;6.670;2023-06-19T18:54:42;7.13;;;6.43;;
64595;SDS011;51003;51.628;6.670;2023-06-19T18:57:07;6.73;;;5.80;;
64595;SDS011;51003;51.628;6.670;2023-06-19T18:59:33;8.57;;;6.10;;
64595;SDS011;51003;51.628;6.670;2023-06-19T19:01:58;8.27;;;5.90;;
64595;SDS011;51003;51.628;6.670;2023-06-19T19:04:24;9.67;;;6.60;;
64595;SDS011;51003;51.628;6.670;2023-06-19T19:06:49;6.10;;;5.50;;
64595;SDS011;51003;51.628;6.670;2023-06-19T19:09:15;6.53;;;5.80;;
64595;SDS011;51003;51.628;6.670;2023-06-19T19:11:40;7.33;;;5.97;;
64595;SDS011;51003;51.628;6.670;2023-06-19T19:14:05;8.23;;;6.93;;
64595;SDS011;51003;51.628;6.670;2023-06-19T19:16:31;7.90;;;7.10;;
64595;SDS011;51003;51.628;6.670;2023-06-19T19:18:56;10.70;;;6.33;;
64595;SDS011;51003;51.628;6.670;2023-06-19T19:21:22;7.53;;;5.50;;
64595;SDS011;51003;51.628;6.670;2023-06-19T19:23:47;11.13;;;6.63;;
64595;SDS011;51003;51.628;6.670;2023-06-19T19:26:12;8.43;;;6.67;;
64595;SDS011;51003;51.628;6.670;2023-06-19T19:28:38;7.77;;;6.33;;
64595;SDS011;51003;51.628;6.670;2023-06-19T19:31:04;6.80;;;5.93;;
64595;SDS011;51003;51.628;6.670;2023-06-19T19:33:29;7.07;;;6.37;;
64595;SDS011;51003;51.628;6.670;2023-06-19T19:35:55;8.70;;;6.13;;
64595;SDS011;51003;51.628;6.670;2023-06-19T19:38:21;8.57;;;6.73;;
64595;SDS011;51003;51.628;6.670;2023-06-19T19:40:47;7.50;;;6.30;;
64595;SDS011;51003;51.628;6.670;2023-06-19T19:43:12;8.03;;;6.23;;
64595;SDS011;51003;51.628;6.670;2023-06-19T19:45:39;8.73;;;6.40;;
64595;SDS011;51003;51.628;6.670;2023-06-19T19:48:05;8.43;;;6.60;;
64595;SDS011;51003;51.628;6.670;2023-06-19T19:50:31;7.23;;;6.30;;
64595;SDS011;51003;51.628;6.670;2023-06-19T19:52:57;11.27;;;6.37;;
64595;SDS011;51003;51.628;6.670;2023-06-19T19:55:22;8.70;;;6.13;;
64595;SDS011;51003;51.628;6.670;2023-06-19T19:57:47;7.20;;;6.20;;
64595;SDS011;51003;51.628;6.670;2023-06-19T20:00:13;6.17;;;5.57;;
64595;SDS011;51003;51.628;6.670;2023-06-19T20:02:40;7.50;;;5.90;;
64595;SDS011;51003;51.628;6.670;2023-06-19T20:05:06;7.57;;;6.23;;
64595;SDS011;51003;51.628;6.670;2023-06-19T20:07:33;9.17;;;6.37;;
64595;SDS011;51003;51.628;6.670;2023-06-19T20:09:58;8.30;;;6.53;;
64595;SDS011;51003;51.628;6.670;2023-06-19T20:12:24;9.33;;;7.30;;
64595;SDS011;51003;51.628;6.670;2023-06-19T20:14:50;11.27;;;7.37;;
64595;SDS011;51003;51.628;6.670;2023-06-19T20:17:16;11.43;;;7.20;;
64595;SDS011;51003;51.628;6.670;2023-06-19T20:19:42;13.10;;;7.30;;
64595;SDS011;51003;51.628;6.670;2023-06-19T20:22:07;11.17;;;7.67;;
64595;SDS011;51003;51.628;6.670;2023-06-19T20:24:33;13.07;;;7.60;;
64595;SDS011;51003;51.628;6.670;2023-06-19T20:26:59;8.70;;;7.20;;
64595;SDS011;51003;51.628;6.670;2023-06-19T20:29:25;12.23;;;7.97;;
64595;SDS011;51003;51.628;6.670;2023-06-19T20:31:50;9.83;;;7.77;;
64595;SDS011;51003;51.628;6.670;2023-06-19T20:34:16;9.80;;;7.67;;
64595;SDS011;51003;51.628;6.670;2023-06-19T20:36:42;10.17;;;7.77;;
64595;SDS011;51003;51.628;6.670;2023-06-19T20:39:08;8.40;;;7.50;;
64595;SDS011;51003;51.628;6.670;2023-06-19T20:41:33;9.20;;;6.83;;
64595;SDS011;51003;51.628;6.670;2023-06-19T20:44:00;12.83;;;8.07;;
64595;SDS011;51003;51.628;6.670;2023-06-19T20:46:27;11.93;;;7.77;;
64595;SDS011;51003;51.628;6.670;2023-06-19T20:48:52;9.50;;;7.77;;
64595;SDS011;51003;51.628;6.670;2023-06-19T20:51:18;11.63;;;8.27;;
64595;SDS011;51003;51.628;6.670;2023-06-19T20:53:45;10.80;;;7.97;;
64595;SDS011;51003;51.628;6.670;2023-06-19T20:56:11;9.53;;;7.30;;
64595;SDS011;51003;51.628;6.670;2023-06-19T20:58:37;12.80;;;8.17;;
64595;SDS011;51003;51.628;6.670;2023-06-19T21:01:03;9.30;;;7.50;;
64595;SDS011;51003;51.628;6.670;2023-06-19T21:03:29;10.80;;;8.30;;
64595;SDS011;51003;51.628;6.670;2023-06-19T21:05:55;9.97;;;7.70;;
64595;SDS011;51003;51.628;6.670;2023-06-19T21:08:24;9.03;;;7.60;;
64595;SDS011;51003;51.628;6.670;2023-06-19T21:10:54;11.00;;;7.70;;
64595;SDS011;51003;51.628;6.670;2023-06-19T21:13:20;9.77;;;8.00;;
64595;SDS011;51003;51.628;6.670;2023-06-19T21:15:45;10.47;;;8.43;;
64595;SDS011;51003;51.628;6.670;2023-06-19T21:18:11;11.93;;;8.83;;
64595;SDS011;51003;51.628;6.670;2023-06-19T21:20:40;14.43;;;8.33;;
64595;SDS011;51003;51.628;6.670;2023-06-19T21:23:05;11.23;;;8.50;;
64595;SDS011;51003;51.628;6.670;2023-06-19T21:25:31;10.77;;;8.17;;
64595;SDS011;51003;51.628;6.670;2023-06-19T21:27:56;9.80;;;8.37;;
64595;SDS011;51003;51.628;6.670;2023-06-19T21:30:25;16.20;;;8.63;;
64595;SDS011;51003;51.628;6.670;2023-06-19T21:32:51;11.50;;;8.23;;
64595;SDS011;51003;51.628;6.670;2023-06-19T21:35:17;11.60;;;8.33;;
64595;SDS011;51003;51.628;6.670;2023-06-19T21:37:43;12.33;;;9.00;;
64595;SDS011;51003;51.628;6.670;2023-06-19T21:40:08;13.80;;;8.47;;
64595;SDS011;51003;51.628;6.670;2023-06-19T21:42:35;9.87;;;8.50;;
64595;SDS011;51003;51.628;6.670;2023-06-19T21:45:01;11.50;;;8.80;;
64595;SDS011;51003;51.628;6.670;2023-06-19T21:47:27;10.60;;;9.03;;
64595;SDS011;51003;51.628;6.670;2023-06-19T21:49:53;13.13;;;9.70;;
64595;SDS011;51003;51.628;6.670;2023-06-19T21:52:19;9.97;;;8.83;;
64595;SDS011;51003;51.628;6.670;2023-06-19T21:54:45;13.53;;;8.47;;
64595;SDS011;51003;51.628;6.670;2023-06-19T21:57:11;12.60;;;8.90;;
64595;SDS011;51003;51.628;6.670;2023-06-19T21:59:36;11.80;;;8.33;;
64595;SDS011;51003;51.628;6.670;2023-06-19T22:02:02;9.90;;;8.43;;
64595;SDS011;51003;51.628;6.670;2023-06-19T22:04:28;10.10;;;7.80;;
64595;SDS011;51003;51.628;6.670;2023-06-19T22:06:54;10.03;;;8.67;;
64595;SDS011;51003;51.628;6.670;2023-06-19T22:09:19;10.33;;;8.43;;
64595;SDS011;51003;51.628;6.670;2023-06-19T22:11:45;10.13;;;8.30;;
64595;SDS011;51003;51.628;6.670;2023-06-19T22:14:11;9.07;;;7.93;;
64595;SDS011;51003;51.628;6.670;2023-06-19T22:16:37;11.70;;;8.53;;
64595;SDS011;51003;51.628;6.670;2023-06-19T22:19:03;12.40;;;9.10;;
64595;SDS011;51003;51.628;6.670;2023-06-19T22:21:29;10.20;;;8.27;;
64595;SDS011;51003;51.628;6.670;2023-06-19T22:23:55;10.23;;;8.17;;
64595;SDS011;51003;51.628;6.670;2023-06-19T22:26:20;10.80;;;8.17;;
64595;SDS011;51003;51.628;6.670;2023-06-19T22:28:46;12.57;;;8.07;;
64595;SDS011;51003;51.628;6.670;2023-06-19T22:31:11;10.77;;;8.47;;
64595;SDS011;51003;51.628;6.670;2023-06-19T22:33:37;11.13;;;8.63;;
64595;SDS011;51003;51.628;6.670;2023-06-19T22:36:02;11.20;;;9.00;;
64595;SDS011;51003;51.628;6.670;2023-06-19T22:38:28;13.43;;;7.93;;
64595;SDS011;51003;51.628;6.670;2023-06-19T22:40:54;10.00;;;8.13;;
64595;SDS011;51003;51.628;6.670;2023-06-19T22:43:20;10.33;;;8.77;;
64595;SDS011;51003;51.628;6.670;2023-06-19T22:45:46;9.80;;;8.03;;
64595;SDS011;51003;51.628;6.670;2023-06-19T22:48:11;13.10;;;8.47;;